createdAt,value
2023-01-08T00:00:26.066Z,74.01
2023-01-08T00:05:50.657Z,73.63
2023-01-08T00:10:56.612Z,74.83
2023-01-08T00:16:04.465Z,75.25
2023-01-08T00:21:07.786Z,74.60
2023-01-08T00:26:12.179Z,74.70
2023-01-08T00:31:15.243Z,74.08
2023-01-08T00:36:19.733Z,74.25
2023-01-08T00:41:22.451Z,74.79
2023-01-08T00:46:25.187Z,76.15
2023-01-08T00:51:28.052Z,75.96
2023-01-08T00:56:30.855Z,75.58
2023-01-08T01:01:33.887Z,75.92
2023-01-08T01:06:36.677Z,76.07
2023-01-08T01:11:40.087Z,76.20
2023-01-08T01:16:43.979Z,77.11
2023-01-08T01:21:46.749Z,78.05
2023-01-08T01:26:49.786Z,79.51
2023-01-08T01:31:53.130Z,80.40
2023-01-08T01:36:55.818Z,81.60
2023-01-08T01:41:58.597Z,81.65
2023-01-08T01:47:04.363Z,82.38
2023-01-08T01:52:09.272Z,82.43
2023-01-08T01:57:12.004Z,82.36
2023-01-08T02:02:15.025Z,82.40
2023-01-08T02:07:33.116Z,82.09
2023-01-08T02:12:45.030Z,81.79
2023-01-08T02:18:14.673Z,81.19
2023-01-08T02:23:30.462Z,80.92
2023-01-08T02:28:41.255Z,81.43
2023-01-08T02:33:44.176Z,82.55
2023-01-08T02:39:28.870Z,80.57
2023-01-08T02:44:46.701Z,78.72
2023-01-08T02:49:55.338Z,78.62
2023-01-08T02:55:01.622Z,79.31
2023-01-08T03:00:05.867Z,78.79
2023-01-08T03:05:21.606Z,80.45
2023-01-08T03:10:28.667Z,79.04
2023-01-08T03:15:46.375Z,79.25
2023-01-08T03:20:51.003Z,78.45
2023-01-08T03:25:53.854Z,79.79
2023-01-08T03:30:58.990Z,81.69
2023-01-08T03:36:04.893Z,81.76
2023-01-08T03:41:11.539Z,82.07
2023-01-08T03:46:20.829Z,81.95
2023-01-08T03:51:23.692Z,81.49
2023-01-08T03:56:26.405Z,82.43
2023-01-08T04:01:29.247Z,82.15
2023-01-08T04:06:32.153Z,82.48
2023-01-08T04:11:35.221Z,82.37
2023-01-08T04:16:38.569Z,81.70
2023-01-08T04:21:41.514Z,82.19
2023-01-08T04:26:44.584Z,82.09
2023-01-08T04:31:47.394Z,81.80
2023-01-08T04:36:50.183Z,82.24
2023-01-08T04:41:52.989Z,82.73
2023-01-08T04:46:55.795Z,82.95
2023-01-08T04:51:58.495Z,82.91
2023-01-08T04:57:01.234Z,82.58
2023-01-08T05:02:04.069Z,82.50
2023-01-08T05:07:08.064Z,82.74
2023-01-08T05:12:10.825Z,82.52
2023-01-08T05:17:14.139Z,82.26
2023-01-08T05:22:16.840Z,82.56
2023-01-08T05:27:19.612Z,82.15
2023-01-08T05:32:22.333Z,81.89
2023-01-08T05:37:25.027Z,81.65
2023-01-08T05:42:28.002Z,81.92
2023-01-08T05:47:32.173Z,82.05
2023-01-08T05:52:34.985Z,81.90
2023-01-08T05:57:37.751Z,81.89
2023-01-08T06:02:40.548Z,81.63
2023-01-08T06:07:43.383Z,81.31
2023-01-08T06:12:46.164Z,80.81
2023-01-08T06:17:48.978Z,80.76
2023-01-08T06:22:54.288Z,81.00
2023-01-08T06:27:57.561Z,80.26
2023-01-08T06:33:01.637Z,80.49
2023-01-08T06:38:04.369Z,80.73
2023-01-08T06:43:07.188Z,80.90
2023-01-08T06:48:10.008Z,80.45
2023-01-08T06:53:12.801Z,80.09
2023-01-08T06:58:15.567Z,79.49
2023-01-08T07:03:19.078Z,80.14
2023-01-08T07:08:22.119Z,80.61
2023-01-08T07:13:25.239Z,81.01
2023-01-08T07:18:28.553Z,81.34
2023-01-08T07:23:31.660Z,81.73
2023-01-08T07:28:35.868Z,81.38
2023-01-08T07:33:38.996Z,80.94
2023-01-08T07:38:42.985Z,80.75
2023-01-08T07:43:48.212Z,80.00
2023-01-08T07:48:50.987Z,80.49
2023-01-08T07:53:56.471Z,80.40
2023-01-08T07:58:59.310Z,79.93
2023-01-08T08:04:02.059Z,79.55
2023-01-08T08:09:04.851Z,80.27
2023-01-08T08:14:07.844Z,80.15
2023-01-08T08:19:13.067Z,80.38
2023-01-08T08:24:16.326Z,79.85
2023-01-08T08:29:19.258Z,80.06
2023-01-08T08:34:22.709Z,80.05
2023-01-08T08:39:25.414Z,80.83
2023-01-08T08:44:28.131Z,81.15
2023-01-08T08:49:31.574Z,79.58
2023-01-08T08:54:34.375Z,79.50
2023-01-08T08:59:37.105Z,78.81
2023-01-08T09:04:39.872Z,79.54
2023-01-08T09:09:42.687Z,79.44
2023-01-08T09:14:45.402Z,79.02
2023-01-08T09:19:48.479Z,79.55
2023-01-08T09:24:51.385Z,79.13
2023-01-08T09:29:54.185Z,79.33
2023-01-08T09:34:57.122Z,79.35
2023-01-08T09:40:02.411Z,79.27
2023-01-08T09:45:06.923Z,78.75
2023-01-08T09:50:14.288Z,75.89
2023-01-08T09:55:17.124Z,75.73
2023-01-08T10:00:26.166Z,76.80
2023-01-08T10:05:29.983Z,77.24
2023-01-08T10:10:33.330Z,76.00
2023-01-08T10:15:36.294Z,76.12
2023-01-08T10:20:39.509Z,76.65
2023-01-08T10:26:03.432Z,78.12
2023-01-08T10:31:11.206Z,78.43
2023-01-08T10:36:17.397Z,78.66
2023-01-08T10:41:20.408Z,78.20
2023-01-08T10:46:31.145Z,77.32
2023-01-08T10:51:34.413Z,77.86
2023-01-08T10:56:44.881Z,78.27
2023-01-08T11:01:50.368Z,78.36
2023-01-08T11:06:59.765Z,77.78
2023-01-08T11:12:02.587Z,77.72
2023-01-08T11:17:13.014Z,78.07
2023-01-08T11:22:22.453Z,75.67
2023-01-08T11:27:31.308Z,75.92
2023-01-08T11:32:49.179Z,75.29
2023-01-08T11:37:51.980Z,75.27
2023-01-08T11:43:12.490Z,74.63
2023-01-08T11:48:47.423Z,73.56
2023-01-08T11:54:15.526Z,72.80
2023-01-08T11:59:24.398Z,70.93
2023-01-08T12:04:59.720Z,72.55
2023-01-08T12:10:27.829Z,72.83
2023-01-08T12:15:30.554Z,73.33
2023-01-08T12:20:38.380Z,72.50
2023-01-08T12:26:02.754Z,72.16
2023-01-08T12:31:33.486Z,72.68
2023-01-08T12:37:06.014Z,72.55
2023-01-08T12:42:16.898Z,71.68
2023-01-08T12:47:22.786Z,71.18
2023-01-08T12:52:38.988Z,70.69
2023-01-08T12:57:52.044Z,70.81
2023-01-08T13:03:06.420Z,71.56
2023-01-08T13:08:29.686Z,71.63
2023-01-08T13:13:36.078Z,67.03
2023-01-08T13:18:39.187Z,67.70
2023-01-08T13:23:41.981Z,66.30
2023-01-08T13:28:45.876Z,66.71
2023-01-08T13:33:52.742Z,66.94
2023-01-08T13:39:10.981Z,68.69
2023-01-08T13:44:34.626Z,68.99
2023-01-08T13:49:51.425Z,69.70
2023-01-08T13:54:54.913Z,68.04
2023-01-08T14:00:00.271Z,66.72
2023-01-08T14:05:37.072Z,64.90
2023-01-08T14:10:39.885Z,64.80
2023-01-08T14:15:43.170Z,63.01
2023-01-08T14:20:50.005Z,62.46
2023-01-08T14:25:53.869Z,63.17
2023-01-08T14:30:57.475Z,63.08
2023-01-08T14:36:02.270Z,63.48
2023-01-08T14:41:14.722Z,62.77
2023-01-08T14:46:28.980Z,62.88
2023-01-08T14:51:32.410Z,63.14
2023-01-08T14:56:36.835Z,61.53
2023-01-08T15:01:40.122Z,62.03
2023-01-08T15:06:43.644Z,62.96
2023-01-08T15:11:54.466Z,62.57
2023-01-08T15:17:00.335Z,64.43
2023-01-08T15:22:03.184Z,63.93
2023-01-08T15:27:10.440Z,64.83
2023-01-08T15:32:16.200Z,65.51
2023-01-08T15:37:18.901Z,64.23
2023-01-08T15:42:47.604Z,63.75
2023-01-08T15:47:50.308Z,63.82
2023-01-08T15:52:54.132Z,66.16
2023-01-08T15:57:56.861Z,67.29
2023-01-08T16:03:00.571Z,66.64
2023-01-08T16:08:04.794Z,64.88
2023-01-08T16:13:08.693Z,62.46
2023-01-08T16:18:12.443Z,61.00
2023-01-08T16:23:15.208Z,61.18
2023-01-08T16:28:17.942Z,63.36
2023-01-08T16:33:20.608Z,64.70
2023-01-08T16:38:25.214Z,64.54
2023-01-08T16:43:30.298Z,63.25
2023-01-08T16:48:33.048Z,62.95
2023-01-08T16:53:36.873Z,63.51
2023-01-08T16:58:39.883Z,62.45
2023-01-08T17:03:42.701Z,63.00
2023-01-08T17:08:46.405Z,64.93
2023-01-08T17:13:49.724Z,66.20
2023-01-08T17:18:52.623Z,65.97
2023-01-08T17:23:55.450Z,64.79
2023-01-08T17:28:58.650Z,67.49
2023-01-08T17:34:01.433Z,67.63
2023-01-08T17:39:04.215Z,68.19
2023-01-08T17:44:09.816Z,70.01
2023-01-08T17:49:15.067Z,67.62
2023-01-08T17:54:18.066Z,67.61
2023-01-08T17:59:21.514Z,68.36
2023-01-08T18:04:24.288Z,67.88
2023-01-08T18:09:27.084Z,68.84
2023-01-08T18:14:30.312Z,68.91
2023-01-08T18:19:33.073Z,67.71
2023-01-08T18:24:35.899Z,66.94
2023-01-08T18:29:38.573Z,65.53
2023-01-08T18:34:41.308Z,66.25
2023-01-08T18:39:44.247Z,64.92
2023-01-08T18:44:48.364Z,64.45
2023-01-08T18:49:55.835Z,64.41
2023-01-08T18:54:58.560Z,63.54
2023-01-08T19:00:03.600Z,63.07
2023-01-08T19:05:06.915Z,63.57
2023-01-08T19:10:11.097Z,64.32
2023-01-08T19:15:13.951Z,65.42
2023-01-08T19:20:17.171Z,63.97
2023-01-08T19:25:20.410Z,65.03
2023-01-08T19:30:23.219Z,64.71
2023-01-08T19:35:25.992Z,64.37
2023-01-08T19:40:28.684Z,64.44
2023-01-08T19:45:31.540Z,63.87
2023-01-08T19:50:38.260Z,65.55
2023-01-08T19:55:41.308Z,67.95
2023-01-08T20:00:44.265Z,70.89
2023-01-08T20:05:47.053Z,70.12
2023-01-08T20:10:50.201Z,70.22
2023-01-08T20:15:57.473Z,70.73
2023-01-08T20:21:12.619Z,71.05
2023-01-08T20:26:18.572Z,71.54
2023-01-08T20:31:23.128Z,71.18
2023-01-08T20:36:29.094Z,71.61
2023-01-08T20:41:32.001Z,70.99
2023-01-08T20:46:36.246Z,70.79
2023-01-08T20:51:46.277Z,70.05
2023-01-08T20:56:59.226Z,71.09
2023-01-08T21:02:02.214Z,69.12
2023-01-08T21:07:05.140Z,71.82
2023-01-08T21:12:08.771Z,71.89
2023-01-08T21:17:12.183Z,71.66
2023-01-08T21:22:14.963Z,70.48
2023-01-08T21:27:17.895Z,69.91
2023-01-08T21:32:20.698Z,70.47
2023-01-08T21:37:23.375Z,69.14
2023-01-08T21:42:44.837Z,70.21
2023-01-08T21:47:47.533Z,69.05
2023-01-08T21:53:09.175Z,70.99
2023-01-08T21:58:12.681Z,72.30
2023-01-08T22:03:15.597Z,69.14
2023-01-08T22:08:19.441Z,69.98
2023-01-08T22:13:22.117Z,72.46
2023-01-08T22:18:24.828Z,71.41
2023-01-08T22:23:27.544Z,72.33
2023-01-08T22:28:30.735Z,70.57
2023-01-08T22:33:34.153Z,69.79
2023-01-08T22:38:37.589Z,69.85
2023-01-08T22:43:40.369Z,70.13
2023-01-08T22:48:43.996Z,69.49
2023-01-08T22:53:46.724Z,67.47
2023-01-08T22:58:49.807Z,69.53
2023-01-08T23:03:54.819Z,69.31
2023-01-08T23:08:57.869Z,69.42
2023-01-08T23:14:00.974Z,70.48
2023-01-08T23:19:03.872Z,71.44
2023-01-08T23:24:11.284Z,71.00
2023-01-08T23:29:14.883Z,68.48
2023-01-08T23:34:17.937Z,67.80
2023-01-08T23:39:21.472Z,66.49
2023-01-08T23:44:24.226Z,65.72
2023-01-08T23:49:27.031Z,67.19
2023-01-08T23:54:29.934Z,67.94
2023-01-08T23:59:32.927Z,70.22
